createdAt,value
2018-09-29T00:01:05.422Z,8.93
2018-09-29T00:03:33.670Z,1.43
2018-09-29T00:06:01.929Z,2.20
2018-09-29T00:08:30.221Z,4.90
2018-09-29T00:10:58.488Z,3.30
2018-09-29T00:13:26.745Z,3.30
2018-09-29T00:15:55.029Z,3.47
2018-09-29T00:18:23.276Z,2.37
2018-09-29T00:20:51.520Z,5.63
2018-09-29T00:23:19.773Z,3.17
2018-09-29T00:25:48.117Z,6.67
2018-09-29T00:28:16.380Z,3.10
2018-09-29T00:30:44.652Z,8.00
2018-09-29T00:33:12.898Z,4.17
2018-09-29T00:35:41.140Z,6.97
2018-09-29T00:38:09.424Z,5.83
2018-09-29T00:40:37.680Z,8.10
2018-09-29T00:43:06.165Z,11.53
2018-09-29T00:45:34.416Z,7.00
2018-09-29T00:48:02.681Z,5.27
2018-09-29T00:50:30.933Z,4.17
2018-09-29T00:52:59.177Z,6.53
2018-09-29T00:55:27.428Z,7.07
2018-09-29T00:57:55.668Z,2.77
2018-09-29T01:00:23.929Z,2.20
2018-09-29T01:02:52.220Z,1.97
2018-09-29T01:05:20.587Z,3.57
2018-09-29T01:07:48.833Z,9.20
2018-09-29T01:10:17.086Z,2.33
2018-09-29T01:12:45.329Z,3.73
2018-09-29T01:15:13.598Z,4.50
2018-09-29T01:17:41.840Z,3.70
2018-09-29T01:20:10.096Z,2.07
2018-09-29T01:22:38.367Z,2.87
2018-09-29T01:25:06.644Z,1.70
2018-09-29T01:27:34.917Z,6.20
2018-09-29T01:30:03.177Z,8.40
2018-09-29T01:32:31.444Z,5.63
2018-09-29T01:34:59.690Z,2.63
2018-09-29T01:37:27.951Z,2.60
2018-09-29T01:39:56.203Z,3.57
2018-09-29T01:42:24.456Z,6.97
2018-09-29T01:44:52.733Z,4.87
2018-09-29T01:47:20.988Z,6.57
2018-09-29T01:49:49.271Z,5.57
2018-09-29T01:52:17.521Z,2.50
2018-09-29T01:54:45.793Z,11.60
2018-09-29T01:57:14.061Z,7.43
2018-09-29T01:59:42.328Z,8.43
2018-09-29T02:02:10.593Z,5.93
2018-09-29T02:04:38.872Z,2.87
2018-09-29T02:07:07.142Z,4.70
2018-09-29T02:09:35.408Z,8.00
2018-09-29T02:12:03.659Z,3.87
2018-09-29T02:14:31.965Z,5.03
2018-09-29T02:17:00.222Z,4.63
2018-09-29T02:19:28.480Z,4.10
2018-09-29T02:21:56.737Z,11.93
2018-09-29T02:24:24.999Z,8.23
2018-09-29T02:26:53.276Z,5.50
2018-09-29T02:29:21.520Z,5.03
2018-09-29T02:31:49.762Z,3.47
2018-09-29T02:34:18.005Z,4.40
2018-09-29T02:36:46.280Z,3.37
2018-09-29T02:39:14.552Z,5.90
2018-09-29T02:41:42.801Z,4.53
2018-09-29T02:44:11.063Z,1.60
2018-09-29T02:46:39.328Z,7.30
2018-09-29T02:49:07.596Z,2.63
2018-09-29T02:51:35.852Z,9.00
2018-09-29T02:54:04.292Z,6.03
2018-09-29T02:56:32.564Z,7.60
2018-09-29T02:59:00.820Z,3.93
2018-09-29T03:01:29.078Z,4.73
2018-09-29T03:03:57.361Z,4.73
2018-09-29T03:06:25.612Z,3.07
2018-09-29T03:08:54.029Z,12.73
2018-09-29T03:11:22.306Z,3.40
2018-09-29T03:13:50.620Z,2.37
2018-09-29T03:16:18.878Z,10.43
2018-09-29T03:18:47.138Z,7.50
2018-09-29T03:21:15.405Z,7.87
2018-09-29T03:23:43.676Z,4.77
2018-09-29T03:26:11.938Z,5.23
2018-09-29T03:28:40.257Z,3.40
2018-09-29T03:31:08.829Z,8.53
2018-09-29T03:33:37.087Z,4.63
2018-09-29T03:36:05.367Z,9.10
2018-09-29T03:38:33.616Z,3.70
2018-09-29T03:41:01.887Z,3.77
2018-09-29T03:43:30.161Z,2.27
2018-09-29T03:45:58.441Z,3.97
2018-09-29T03:48:26.744Z,10.53
2018-09-29T03:50:54.992Z,13.07
2018-09-29T03:53:23.503Z,7.17
2018-09-29T03:55:51.744Z,4.27
2018-09-29T03:58:19.997Z,2.73
2018-09-29T04:00:48.243Z,2.37
2018-09-29T04:03:17.765Z,2.47
2018-09-29T04:05:46.061Z,7.93
2018-09-29T04:08:14.326Z,9.97
2018-09-29T04:10:42.584Z,12.07
2018-09-29T04:13:10.848Z,9.80
2018-09-29T04:15:39.112Z,2.43
2018-09-29T04:18:07.373Z,5.50
2018-09-29T04:20:35.660Z,9.43
2018-09-29T04:23:10.684Z,4.70
2018-09-29T04:25:38.940Z,2.63
2018-09-29T04:28:07.188Z,7.87
2018-09-29T04:30:35.454Z,10.93
2018-09-29T04:33:03.715Z,3.00
2018-09-29T04:35:31.969Z,1.80
2018-09-29T04:38:00.216Z,5.30
2018-09-29T04:40:28.463Z,9.73
2018-09-29T04:42:56.720Z,4.60
2018-09-29T04:45:24.979Z,4.20
2018-09-29T04:47:53.257Z,5.20
2018-09-29T04:50:21.521Z,7.10
2018-09-29T04:52:49.844Z,4.10
2018-09-29T04:55:18.090Z,4.00
2018-09-29T04:57:46.390Z,12.17
2018-09-29T05:00:14.640Z,5.40
2018-09-29T05:02:42.896Z,4.60
2018-09-29T05:05:11.145Z,7.07
2018-09-29T05:07:39.409Z,3.43
2018-09-29T05:10:07.680Z,4.60
2018-09-29T05:12:35.953Z,3.60
2018-09-29T05:15:04.285Z,7.17
2018-09-29T05:17:32.534Z,2.70
2018-09-29T05:20:00.788Z,3.10
2018-09-29T05:22:29.061Z,5.53
2018-09-29T05:24:57.358Z,5.67
2018-09-29T05:27:25.604Z,2.80
2018-09-29T05:29:53.855Z,3.60
2018-09-29T05:32:22.113Z,2.43
2018-09-29T05:34:50.391Z,1.93
2018-09-29T05:37:18.648Z,5.10
2018-09-29T05:39:46.909Z,6.47
2018-09-29T05:42:15.249Z,3.73
2018-09-29T05:44:43.516Z,5.27
2018-09-29T05:47:11.792Z,5.83
2018-09-29T05:49:40.081Z,3.53
2018-09-29T05:52:08.380Z,4.53
2018-09-29T05:54:36.677Z,4.13
2018-09-29T05:57:04.920Z,7.10
2018-09-29T05:59:33.204Z,9.07
2018-09-29T06:02:01.469Z,10.53
2018-09-29T06:04:30.053Z,10.90
2018-09-29T06:06:58.371Z,3.10
2018-09-29T06:09:26.627Z,13.47
2018-09-29T06:11:54.932Z,11.63
2018-09-29T06:14:23.199Z,5.23
2018-09-29T06:16:51.458Z,3.53
2018-09-29T06:19:19.726Z,3.20
2018-09-29T06:21:47.985Z,12.13
2018-09-29T06:24:16.240Z,5.47
2018-09-29T06:26:44.508Z,5.00
2018-09-29T06:29:12.780Z,3.13
2018-09-29T06:31:41.052Z,16.37
2018-09-29T06:34:09.334Z,9.50
2018-09-29T06:36:37.645Z,3.33
2018-09-29T06:39:08.021Z,5.67
2018-09-29T06:41:36.257Z,4.73
2018-09-29T06:44:04.684Z,2.80
2018-09-29T06:46:32.948Z,8.03
2018-09-29T06:49:01.215Z,4.03
2018-09-29T06:51:29.480Z,6.23
2018-09-29T06:53:57.740Z,5.37
2018-09-29T06:56:25.993Z,6.93
2018-09-29T06:58:54.285Z,6.57
2018-09-29T07:01:22.537Z,5.40
2018-09-29T07:03:50.809Z,4.50
2018-09-29T07:06:19.088Z,7.53
2018-09-29T07:08:47.349Z,3.10
2018-09-29T07:11:15.617Z,7.27
2018-09-29T07:13:43.880Z,12.83
2018-09-29T07:16:12.141Z,5.37
2018-09-29T07:18:40.418Z,5.83
2018-09-29T07:21:08.688Z,9.97
2018-09-29T07:23:36.957Z,4.90
2018-09-29T07:26:05.261Z,6.83
2018-09-29T07:28:33.522Z,4.63
2018-09-29T07:31:01.792Z,9.47
2018-09-29T07:33:30.078Z,5.10
2018-09-29T07:35:58.361Z,12.37
2018-09-29T07:38:26.618Z,7.17
2018-09-29T07:40:54.876Z,5.90
2018-09-29T07:43:23.163Z,9.30
2018-09-29T07:45:51.449Z,11.90
2018-09-29T07:48:19.721Z,8.57
2018-09-29T07:50:47.998Z,16.77
2018-09-29T07:53:16.280Z,15.57
2018-09-29T07:55:44.541Z,3.27
2018-09-29T07:58:12.815Z,10.17
2018-09-29T08:00:41.091Z,6.50
2018-09-29T08:03:09.368Z,7.73
2018-09-29T08:05:37.644Z,10.27
2018-09-29T08:08:05.904Z,10.47
2018-09-29T08:10:34.180Z,6.23
2018-09-29T08:13:02.598Z,5.20
2018-09-29T08:15:30.868Z,12.10
2018-09-29T08:17:59.123Z,2.37
2018-09-29T08:20:27.388Z,6.53
2018-09-29T08:22:55.640Z,7.47
2018-09-29T08:25:23.925Z,5.10
2018-09-29T08:27:52.180Z,7.93
2018-09-29T08:30:20.461Z,5.83
2018-09-29T08:32:48.712Z,12.00
2018-09-29T08:35:16.961Z,6.03
2018-09-29T08:37:45.248Z,4.33
2018-09-29T08:40:13.513Z,7.27
2018-09-29T08:42:41.865Z,4.10
2018-09-29T08:45:10.151Z,7.07
2018-09-29T08:47:38.420Z,7.03
2018-09-29T08:50:06.842Z,4.93
2018-09-29T08:52:35.095Z,3.27
2018-09-29T08:55:03.365Z,11.13
2018-09-29T08:57:31.628Z,5.00
2018-09-29T08:59:59.882Z,6.17
2018-09-29T09:02:28.163Z,3.57
2018-09-29T09:04:56.432Z,7.77
2018-09-29T09:07:24.703Z,6.57
2018-09-29T09:09:52.968Z,5.27
2018-09-29T09:12:21.234Z,3.03
2018-09-29T09:14:49.517Z,7.53
2018-09-29T09:17:17.770Z,3.23
2018-09-29T09:19:46.034Z,4.57
2018-09-29T09:22:14.312Z,5.73
2018-09-29T09:24:42.573Z,11.77
2018-09-29T09:27:10.832Z,2.77
2018-09-29T09:29:39.118Z,4.03
2018-09-29T09:32:07.405Z,3.93
2018-09-29T09:34:35.661Z,8.47
2018-09-29T09:37:03.929Z,7.73
2018-09-29T09:39:32.180Z,4.63
2018-09-29T09:42:00.548Z,5.17
2018-09-29T09:44:28.809Z,7.87
2018-09-29T09:46:57.165Z,5.53
2018-09-29T09:49:25.438Z,5.77
2018-09-29T09:51:53.704Z,10.23
2018-09-29T09:54:21.983Z,9.40
2018-09-29T09:56:50.244Z,4.90
2018-09-29T09:59:18.517Z,1.60
2018-09-29T10:01:52.292Z,0.97
2018-09-29T10:04:20.532Z,4.47
2018-09-29T10:06:48.801Z,1.60
2018-09-29T10:09:17.058Z,2.97
2018-09-29T10:11:45.345Z,3.67
2018-09-29T10:14:13.602Z,3.83
2018-09-29T10:16:41.856Z,5.13
2018-09-29T10:19:10.114Z,4.67
2018-09-29T10:21:38.385Z,4.43
2018-09-29T10:24:06.832Z,1.40
2018-09-29T10:26:35.113Z,4.23
2018-09-29T10:29:03.390Z,2.53
2018-09-29T10:31:31.680Z,2.33
2018-09-29T10:33:59.955Z,2.17
2018-09-29T10:36:28.294Z,2.07
2018-09-29T10:38:56.646Z,4.37
2018-09-29T10:41:24.922Z,2.50
2018-09-29T10:43:53.173Z,1.43
2018-09-29T10:46:21.448Z,1.97
2018-09-29T10:48:49.733Z,4.00
2018-09-29T10:51:17.998Z,1.10
2018-09-29T10:53:46.272Z,2.63
2018-09-29T10:56:14.553Z,5.23
2018-09-29T10:58:42.815Z,0.77
2018-09-29T11:01:11.080Z,1.13
2018-09-29T11:03:39.352Z,1.80
2018-09-29T11:06:07.603Z,3.53
2018-09-29T11:08:36.058Z,3.53
2018-09-29T11:11:04.309Z,1.73
2018-09-29T11:13:32.568Z,2.50
2018-09-29T11:16:00.832Z,1.57
2018-09-29T11:18:29.088Z,0.60
2018-09-29T11:20:57.387Z,3.23
2018-09-29T11:23:25.625Z,4.57
2018-09-29T11:25:53.894Z,2.23
2018-09-29T11:28:22.810Z,2.90
2018-09-29T11:30:51.068Z,2.83
2018-09-29T11:33:19.581Z,2.07
2018-09-29T11:35:47.969Z,5.63
2018-09-29T11:38:16.231Z,5.27
2018-09-29T11:40:44.473Z,4.70
2018-09-29T11:43:12.908Z,4.20
2018-09-29T11:45:41.342Z,1.83
2018-09-29T11:48:09.593Z,3.97
2018-09-29T11:50:37.860Z,3.43
2018-09-29T11:53:06.159Z,2.80
2018-09-29T11:55:34.444Z,1.30
2018-09-29T11:58:02.702Z,1.10
2018-09-29T12:00:30.964Z,1.77
2018-09-29T12:02:59.242Z,5.27
2018-09-29T12:05:27.488Z,6.43
2018-09-29T12:07:55.756Z,3.07
2018-09-29T12:10:24.061Z,0.93
2018-09-29T12:12:52.308Z,2.30
2018-09-29T12:15:20.560Z,4.20
2018-09-29T12:17:48.821Z,7.20
2018-09-29T12:20:17.074Z,1.30
2018-09-29T12:22:45.333Z,5.77
2018-09-29T12:25:13.589Z,2.23
2018-09-29T12:27:41.860Z,7.63
2018-09-29T12:30:10.109Z,2.97
2018-09-29T12:32:38.382Z,1.23
2018-09-29T12:35:06.781Z,6.40
2018-09-29T12:37:35.093Z,1.10
2018-09-29T12:40:03.327Z,5.07
2018-09-29T12:42:31.613Z,1.33
2018-09-29T12:44:59.937Z,1.57
2018-09-29T12:47:28.260Z,2.47
2018-09-29T12:49:56.502Z,3.13
2018-09-29T12:52:24.761Z,0.50
2018-09-29T12:54:53.161Z,2.57
2018-09-29T12:57:21.570Z,5.13
2018-09-29T12:59:50.120Z,2.73
2018-09-29T13:02:18.397Z,4.00
2018-09-29T13:04:46.812Z,3.20
2018-09-29T13:07:15.073Z,1.33
2018-09-29T13:09:43.327Z,5.27
2018-09-29T13:12:11.617Z,1.97
2018-09-29T13:14:39.904Z,2.03
2018-09-29T13:17:08.309Z,2.30
2018-09-29T13:19:36.562Z,3.23
2018-09-29T13:22:04.819Z,3.73
2018-09-29T13:24:33.098Z,1.20
2018-09-29T13:27:01.362Z,1.40
2018-09-29T13:29:29.652Z,1.70
2018-09-29T13:31:57.977Z,10.80
2018-09-29T13:34:26.276Z,5.20
2018-09-29T13:36:54.556Z,0.90
2018-09-29T13:39:22.840Z,1.23
2018-09-29T13:41:51.096Z,6.10
2018-09-29T13:44:19.392Z,2.57
2018-09-29T13:46:47.629Z,0.70
2018-09-29T13:49:15.885Z,3.87
2018-09-29T13:51:44.148Z,0.90
2018-09-29T13:54:12.440Z,2.80
2018-09-29T13:56:40.717Z,3.27
2018-09-29T13:59:08.985Z,0.60
2018-09-29T14:01:37.252Z,0.93
2018-09-29T14:06:40.244Z,3.60
2018-09-29T14:09:09.674Z,3.10
2018-09-29T14:11:37.957Z,3.33
2018-09-29T14:14:06.837Z,4.97
2018-09-29T14:16:35.104Z,0.87
2018-09-29T14:19:03.352Z,2.83
2018-09-29T14:21:31.657Z,2.07
2018-09-29T14:23:59.940Z,2.13
2018-09-29T14:26:28.281Z,3.83
2018-09-29T14:28:56.548Z,2.70
2018-09-29T14:31:24.840Z,2.47
2018-09-29T14:33:53.101Z,3.33
2018-09-29T14:36:21.368Z,1.10
2018-09-29T14:38:49.620Z,5.20
2018-09-29T14:41:17.889Z,8.60
2018-09-29T14:43:46.161Z,5.70
2018-09-29T14:46:14.418Z,1.83
2018-09-29T14:48:42.672Z,3.50
2018-09-29T14:51:10.984Z,1.10
2018-09-29T14:53:39.236Z,1.47
2018-09-29T14:56:07.494Z,3.50
2018-09-29T14:58:35.776Z,0.70
2018-09-29T15:01:04.172Z,4.03
2018-09-29T15:03:32.440Z,2.97
2018-09-29T15:06:00.863Z,3.23
2018-09-29T15:08:29.134Z,3.57
2018-09-29T15:10:57.404Z,1.93
2018-09-29T15:13:25.801Z,0.53
2018-09-29T15:15:54.044Z,5.23
2018-09-29T15:18:22.328Z,2.53
2018-09-29T15:20:51.990Z,2.10
2018-09-29T15:23:20.525Z,3.27
2018-09-29T15:25:48.786Z,1.77
2018-09-29T15:28:17.033Z,2.00
2018-09-29T15:30:45.320Z,2.50
2018-09-29T15:33:13.604Z,1.03
2018-09-29T15:35:41.896Z,3.47
2018-09-29T15:38:10.192Z,2.13
2018-09-29T15:40:38.446Z,1.93
2018-09-29T15:43:06.721Z,3.33
2018-09-29T15:45:35.187Z,7.30
2018-09-29T15:48:03.438Z,2.57
2018-09-29T15:50:31.694Z,5.40
2018-09-29T15:52:59.974Z,9.10
2018-09-29T15:55:28.273Z,1.83
2018-09-29T15:57:56.519Z,2.10
2018-09-29T16:00:24.791Z,0.90
2018-09-29T16:02:53.072Z,5.10
2018-09-29T16:05:21.352Z,0.67
2018-09-29T16:07:49.665Z,2.43
2018-09-29T16:10:17.932Z,1.30
2018-09-29T16:12:46.195Z,0.70
2018-09-29T16:15:14.466Z,2.13
2018-09-29T16:17:42.725Z,4.37
2018-09-29T16:20:11.006Z,2.93
2018-09-29T16:22:39.293Z,3.27
2018-09-29T16:25:07.604Z,3.13
2018-09-29T16:27:35.855Z,1.43
2018-09-29T16:30:04.238Z,3.23
2018-09-29T16:32:32.621Z,2.10
2018-09-29T16:35:00.905Z,2.07
2018-09-29T16:37:29.190Z,6.80
2018-09-29T16:39:57.457Z,7.33
2018-09-29T16:42:25.772Z,4.87
2018-09-29T16:44:54.069Z,2.20
2018-09-29T16:47:22.320Z,4.73
2018-09-29T16:49:50.607Z,2.00
2018-09-29T16:52:18.856Z,4.30
2018-09-29T16:54:47.118Z,6.67
2018-09-29T16:57:15.400Z,9.80
2018-09-29T16:59:43.708Z,6.10
2018-09-29T17:02:11.989Z,5.43
2018-09-29T17:04:40.281Z,5.37
2018-09-29T17:07:08.540Z,6.87
2018-09-29T17:09:36.804Z,2.83
2018-09-29T17:12:05.909Z,2.77
2018-09-29T17:14:34.165Z,2.80
2018-09-29T17:17:02.444Z,6.90
2018-09-29T17:19:30.975Z,6.63
2018-09-29T17:21:59.330Z,9.77
2018-09-29T17:24:27.518Z,7.07
2018-09-29T17:26:55.809Z,11.23
2018-09-29T17:29:24.105Z,5.20
2018-09-29T17:31:52.437Z,5.37
2018-09-29T17:34:20.658Z,3.87
2018-09-29T17:36:49.756Z,4.90
2018-09-29T17:39:18.044Z,3.07
2018-09-29T17:41:46.307Z,8.50
2018-09-29T17:44:14.603Z,2.73
2018-09-29T17:46:42.852Z,5.93
2018-09-29T17:49:11.107Z,7.97
2018-09-29T17:51:39.373Z,4.47
2018-09-29T17:54:07.652Z,7.63
2018-09-29T17:56:35.900Z,3.17
2018-09-29T17:59:04.223Z,14.40
2018-09-29T18:01:32.488Z,27.57
2018-09-29T18:04:00.799Z,13.20
2018-09-29T18:06:29.056Z,16.17
2018-09-29T18:08:57.344Z,20.63
2018-09-29T18:11:25.625Z,37.27
2018-09-29T18:13:53.901Z,24.30
2018-09-29T18:16:22.190Z,17.07
2018-09-29T18:18:50.463Z,16.43
2018-09-29T18:21:18.756Z,12.57
2018-09-29T18:23:47.025Z,7.43
2018-09-29T18:26:15.310Z,9.27
2018-09-29T18:28:43.556Z,6.60
2018-09-29T18:31:11.833Z,6.53
2018-09-29T18:33:40.126Z,4.17
2018-09-29T18:36:08.409Z,8.40
2018-09-29T18:38:37.205Z,5.03
2018-09-29T18:41:05.459Z,4.40
2018-09-29T18:43:33.748Z,6.63
2018-09-29T18:46:02.132Z,5.17
2018-09-29T18:48:30.427Z,4.20
2018-09-29T18:50:58.696Z,4.53
2018-09-29T18:53:26.947Z,7.67
2018-09-29T18:55:55.194Z,7.00
2018-09-29T18:58:23.478Z,5.17
2018-09-29T19:00:51.757Z,4.23
2018-09-29T19:03:20.033Z,7.63
2018-09-29T19:05:48.320Z,5.07
2018-09-29T19:08:16.606Z,9.10
2018-09-29T19:10:44.883Z,6.17
2018-09-29T19:13:13.158Z,7.80
2018-09-29T19:15:41.436Z,10.17
2018-09-29T19:18:09.725Z,10.47
2018-09-29T19:20:37.984Z,11.80
2018-09-29T19:23:06.441Z,11.40
2018-09-29T19:25:34.737Z,10.40
2018-09-29T19:28:02.993Z,15.63
2018-09-29T19:30:31.278Z,11.80
2018-09-29T19:32:59.564Z,12.93
2018-09-29T19:35:28.049Z,6.03
2018-09-29T19:37:56.333Z,10.73
2018-09-29T19:40:24.772Z,10.27
2018-09-29T19:42:53.037Z,11.77
2018-09-29T19:45:21.310Z,8.87
2018-09-29T19:47:49.629Z,10.47
2018-09-29T19:50:17.883Z,10.50
2018-09-29T19:52:46.150Z,8.13
2018-09-29T19:55:14.444Z,9.67
2018-09-29T19:57:42.729Z,11.07
2018-09-29T20:00:11.021Z,9.03
2018-09-29T20:02:39.313Z,5.47
2018-09-29T20:05:07.597Z,8.80
2018-09-29T20:07:36.225Z,6.03
2018-09-29T20:10:04.659Z,9.00
2018-09-29T20:12:32.925Z,6.57
2018-09-29T20:15:01.212Z,5.27
2018-09-29T20:17:29.478Z,7.23
2018-09-29T20:19:57.786Z,4.60
2018-09-29T20:22:26.261Z,5.80
2018-09-29T20:24:54.548Z,6.17
2018-09-29T20:27:22.837Z,4.67
2018-09-29T20:29:51.122Z,36.10
2018-09-29T20:32:19.420Z,48.63
2018-09-29T20:34:47.712Z,46.73
2018-09-29T20:37:16.068Z,23.77
2018-09-29T20:39:44.315Z,17.43
2018-09-29T20:42:12.604Z,13.33
2018-09-29T20:44:40.856Z,13.27
2018-09-29T20:47:09.152Z,44.40
2018-09-29T20:49:37.498Z,49.73
2018-09-29T20:52:05.737Z,40.27
2018-09-29T20:54:34.042Z,16.37
2018-09-29T20:57:02.357Z,15.40
2018-09-29T20:59:30.649Z,6.60
2018-09-29T21:01:58.928Z,14.13
2018-09-29T21:04:27.192Z,7.77
2018-09-29T21:06:55.486Z,9.63
2018-09-29T21:09:30.560Z,6.57
2018-09-29T21:11:58.821Z,7.97
2018-09-29T21:14:27.115Z,9.60
2018-09-29T21:16:55.400Z,4.43
2018-09-29T21:19:23.682Z,5.10
2018-09-29T21:21:51.959Z,12.70
2018-09-29T21:24:20.204Z,9.67
2018-09-29T21:26:48.452Z,12.27
2018-09-29T21:29:16.724Z,7.80
2018-09-29T21:31:45.012Z,9.73
2018-09-29T21:34:13.298Z,20.67
2018-09-29T21:36:41.576Z,33.53
2018-09-29T21:39:16.459Z,15.57
2018-09-29T21:41:44.734Z,11.40
2018-09-29T21:44:12.996Z,9.93
2018-09-29T21:46:41.248Z,8.60
2018-09-29T21:49:09.553Z,11.27
2018-09-29T21:51:37.828Z,9.33
2018-09-29T21:54:06.119Z,7.17
2018-09-29T21:56:34.380Z,6.73
2018-09-29T21:59:02.629Z,6.47
2018-09-29T22:01:33.008Z,8.93
2018-09-29T22:04:02.201Z,8.20
2018-09-29T22:06:30.470Z,6.63
2018-09-29T22:08:59.264Z,6.40
2018-09-29T22:11:27.564Z,10.73
2018-09-29T22:13:55.935Z,4.30
2018-09-29T22:16:24.638Z,8.70
2018-09-29T22:18:53.878Z,3.27
2018-09-29T22:21:22.236Z,8.20
2018-09-29T22:23:50.513Z,5.87
2018-09-29T22:26:18.785Z,8.20
2018-09-29T22:28:47.060Z,3.77
2018-09-29T22:31:15.356Z,7.17
2018-09-29T22:33:43.632Z,5.80
2018-09-29T22:36:11.901Z,11.63
2018-09-29T22:38:40.195Z,9.20
2018-09-29T22:41:08.473Z,4.57
2018-09-29T22:43:36.731Z,3.60
2018-09-29T22:46:05.033Z,14.40
2018-09-29T22:48:33.288Z,3.67
2018-09-29T22:51:01.537Z,5.97
2018-09-29T22:53:29.798Z,4.30
2018-09-29T22:55:58.120Z,6.03
2018-09-29T22:58:26.348Z,6.57
2018-09-29T23:00:54.701Z,6.23
2018-09-29T23:03:23.001Z,2.23
2018-09-29T23:05:51.279Z,5.10
2018-09-29T23:08:19.547Z,12.00
2018-09-29T23:10:47.856Z,5.47
2018-09-29T23:13:16.118Z,2.77
2018-09-29T23:15:44.401Z,5.07
2018-09-29T23:18:12.680Z,7.83
2018-09-29T23:20:40.973Z,6.17
2018-09-29T23:23:09.236Z,4.67
2018-09-29T23:25:37.543Z,4.57
2018-09-29T23:28:05.858Z,2.70
2018-09-29T23:30:34.138Z,4.77
2018-09-29T23:33:02.425Z,7.03
2018-09-29T23:35:30.693Z,5.13
2018-09-29T23:37:58.996Z,6.97
2018-09-29T23:40:27.258Z,3.27
2018-09-29T23:42:55.564Z,3.27
2018-09-29T23:45:23.820Z,3.10
2018-09-29T23:47:52.108Z,3.07
2018-09-29T23:50:20.380Z,2.57
2018-09-29T23:52:48.671Z,6.03
2018-09-29T23:55:16.940Z,4.37
2018-09-29T23:57:45.206Z,4.17
